sensor_id;sensor_type;location;lat;lon;timestamp;pressure;altitude;pressure_sealevel;temperature;humidity
1926;BME280;964;42.606;23.588;2022-12-18T00:02:00;95193.50;;;26.69;31.08
1926;BME280;964;42.606;23.588;2022-12-18T00:04:27;95194.59;;;26.34;31.38
1926;BME280;964;42.606;23.588;2022-12-18T00:06:54;95204.28;;;26.22;31.36
1926;BME280;964;42.606;23.588;2022-12-18T00:09:21;95202.84;;;26.18;31.23
1926;BME280;964;42.606;23.588;2022-12-18T00:11:47;95211.75;;;26.31;31.17
1926;BME280;964;42.606;23.588;2022-12-18T00:14:16;95213.56;;;26.09;31.42
1926;BME280;964;42.606;23.588;2022-12-18T00:16:44;95214.72;;;25.82;31.44
1926;BME280;964;42.606;23.588;2022-12-18T00:19:11;95218.56;;;25.69;31.99
1926;BME280;964;42.606;23.588;2022-12-18T00:21:42;95227.41;;;26.27;31.39
1926;BME280;964;42.606;23.588;2022-12-18T00:24:09;95225.03;;;25.14;32.50
1926;BME280;964;42.606;23.588;2022-12-18T00:26:38;95230.25;;;25.37;32.05
1926;BME280;964;42.606;23.588;2022-12-18T00:29:07;95231.75;;;24.93;32.63
1926;BME280;964;42.606;23.588;2022-12-18T00:31:37;95234.41;;;24.45;32.80
1926;BME280;964;42.606;23.588;2022-12-18T00:34:03;95236.06;;;24.74;32.47
1926;BME280;964;42.606;23.588;2022-12-18T00:36:32;95241.97;;;24.53;32.75
1926;BME280;964;42.606;23.588;2022-12-18T00:39:02;95242.16;;;24.62;32.44
1926;BME280;964;42.606;23.588;2022-12-18T00:41:29;95242.47;;;25.29;31.60
1926;BME280;964;42.606;23.588;2022-12-18T00:44:15;95247.72;;;25.36;31.64
1926;BME280;964;42.606;23.588;2022-12-18T00:46:44;95241.91;;;25.66;31.20
1926;BME280;964;42.606;23.588;2022-12-18T00:49:11;95247.91;;;25.29;31.67
1926;BME280;964;42.606;23.588;2022-12-18T00:51:37;95249.81;;;25.00;32.00
1926;BME280;964;42.606;23.588;2022-12-18T00:54:04;95249.75;;;24.67;32.49
1926;BME280;964;42.606;23.588;2022-12-18T00:56:31;95254.34;;;24.54;32.39
1926;BME280;964;42.606;23.588;2022-12-18T00:58:58;95260.44;;;23.83;32.88
1926;BME280;964;42.606;23.588;2022-12-18T01:01:24;95249.59;;;23.83;32.98
1926;BME280;964;42.606;23.588;2022-12-18T01:03:52;95258.63;;;24.35;32.48
1926;BME280;964;42.606;23.588;2022-12-18T01:06:27;95262.66;;;24.08;32.34
1926;BME280;964;42.606;23.588;2022-12-18T01:08:54;95260.28;;;24.10;32.32
1926;BME280;964;42.606;23.588;2022-12-18T01:11:21;95266.19;;;24.05;32.51
1926;BME280;964;42.606;23.588;2022-12-18T01:13:48;95267.84;;;24.38;32.69
1926;BME280;964;42.606;23.588;2022-12-18T01:16:16;95273.28;;;23.99;32.54
1926;BME280;964;42.606;23.588;2022-12-18T01:18:42;95275.25;;;23.78;33.09
1926;BME280;964;42.606;23.588;2022-12-18T01:21:12;95271.38;;;24.19;32.15
1926;BME280;964;42.606;23.588;2022-12-18T01:23:39;95277.16;;;23.58;33.07
1926;BME280;964;42.606;23.588;2022-12-18T01:26:07;95273.84;;;23.70;32.97
1926;BME280;964;42.606;23.588;2022-12-18T01:28:34;95274.00;;;23.17;33.43
1926;BME280;964;42.606;23.588;2022-12-18T01:31:13;95282.06;;;23.40;33.24
1926;BME280;964;42.606;23.588;2022-12-18T01:33:40;95276.59;;;23.86;32.77
1926;BME280;964;42.606;23.588;2022-12-18T01:36:08;95285.09;;;23.22;33.28
1926;BME280;964;42.606;23.588;2022-12-18T01:38:36;95287.59;;;22.86;33.83
1926;BME280;964;42.606;23.588;2022-12-18T01:41:03;95292.44;;;22.99;32.98
1926;BME280;964;42.606;23.588;2022-12-18T01:43:44;95291.31;;;23.19;33.23
1926;BME280;964;42.606;23.588;2022-12-18T01:46:11;95283.06;;;24.12;32.03
1926;BME280;964;42.606;23.588;2022-12-18T01:48:38;95290.53;;;23.65;32.46
1926;BME280;964;42.606;23.588;2022-12-18T01:51:07;95296.44;;;23.60;32.74
1926;BME280;964;42.606;23.588;2022-12-18T01:53:37;95301.03;;;23.63;32.62
1926;BME280;964;42.606;23.588;2022-12-18T01:56:05;95289.66;;;24.31;31.88
1926;BME280;964;42.606;23.588;2022-12-18T01:58:39;95302.66;;;23.11;32.69
1926;BME280;964;42.606;23.588;2022-12-18T02:01:08;95295.88;;;23.49;32.40
1926;BME280;964;42.606;23.588;2022-12-18T02:03:35;95301.44;;;23.15;33.30
1926;BME280;964;42.606;23.588;2022-12-18T02:06:07;95304.59;;;23.33;32.53
1926;BME280;964;42.606;23.588;2022-12-18T02:08:42;95319.47;;;23.22;32.57
1926;BME280;964;42.606;23.588;2022-12-18T02:11:20;95321.13;;;23.16;32.57
1926;BME280;964;42.606;23.588;2022-12-18T02:13:53;95328.38;;;22.38;33.67
1926;BME280;964;42.606;23.588;2022-12-18T02:16:27;95330.78;;;22.33;33.40
1926;BME280;964;42.606;23.588;2022-12-18T02:19:00;95333.00;;;22.38;33.37
1926;BME280;964;42.606;23.588;2022-12-18T02:21:39;95324.75;;;23.75;31.43
1926;BME280;964;42.606;23.588;2022-12-18T02:24:18;95327.47;;;23.06;32.54
1926;BME280;964;42.606;23.588;2022-12-18T02:26:55;95335.94;;;23.08;32.41
1926;BME280;964;42.606;23.588;2022-12-18T02:29:25;95338.88;;;23.17;32.15
1926;BME280;964;42.606;23.588;2022-12-18T02:31:56;95336.09;;;22.70;33.12
1926;BME280;964;42.606;23.588;2022-12-18T02:34:29;95344.16;;;22.10;33.22
1926;BME280;964;42.606;23.588;2022-12-18T02:36:58;95350.03;;;22.35;33.49
1926;BME280;964;42.606;23.588;2022-12-18T02:39:29;95344.75;;;22.85;32.65
1926;BME280;964;42.606;23.588;2022-12-18T02:41:59;95349.38;;;22.84;32.60
1926;BME280;964;42.606;23.588;2022-12-18T02:44:27;95347.66;;;22.98;31.79
1926;BME280;964;42.606;23.588;2022-12-18T02:46:54;95342.88;;;22.82;32.34
1926;BME280;964;42.606;23.588;2022-12-18T02:49:26;95362.00;;;22.00;32.89
1926;BME280;964;42.606;23.588;2022-12-18T02:52:02;95356.13;;;23.00;31.90
1926;BME280;964;42.606;23.588;2022-12-18T02:54:42;95349.03;;;22.52;32.54
1926;BME280;964;42.606;23.588;2022-12-18T02:57:19;95348.69;;;23.07;32.09
1926;BME280;964;42.606;23.588;2022-12-18T02:59:56;95351.56;;;22.36;32.80
1926;BME280;964;42.606;23.588;2022-12-18T03:02:27;95359.78;;;21.91;32.79
1926;BME280;964;42.606;23.588;2022-12-18T03:05:01;95362.06;;;21.96;33.09
1926;BME280;964;42.606;23.588;2022-12-18T03:07:35;95365.16;;;22.29;32.70
1926;BME280;964;42.606;23.588;2022-12-18T03:10:06;95359.75;;;22.29;32.37
1926;BME280;964;42.606;23.588;2022-12-18T03:12:38;95369.09;;;21.83;32.50
1926;BME280;964;42.606;23.588;2022-12-18T03:15:10;95370.09;;;22.64;32.18
1926;BME280;964;42.606;23.588;2022-12-18T03:17:41;95366.41;;;22.21;32.86
1926;BME280;964;42.606;23.588;2022-12-18T03:20:14;95377.13;;;22.28;32.64
1926;BME280;964;42.606;23.588;2022-12-18T03:22:43;95373.72;;;22.54;32.72
1926;BME280;964;42.606;23.588;2022-12-18T03:25:13;95378.56;;;21.58;33.53
1926;BME280;964;42.606;23.588;2022-12-18T03:27:47;95372.63;;;22.18;32.51
1926;BME280;964;42.606;23.588;2022-12-18T03:30:16;95382.69;;;22.14;32.81
1926;BME280;964;42.606;23.588;2022-12-18T03:32:47;95382.94;;;22.23;33.04
1926;BME280;964;42.606;23.588;2022-12-18T03:35:19;95395.38;;;21.76;32.74
1926;BME280;964;42.606;23.588;2022-12-18T03:37:47;95392.91;;;21.95;32.62
1926;BME280;964;42.606;23.588;2022-12-18T03:40:14;95395.91;;;22.38;32.50
1926;BME280;964;42.606;23.588;2022-12-18T03:42:46;95395.84;;;22.08;32.63
1926;BME280;964;42.606;23.588;2022-12-18T03:45:22;95402.63;;;21.82;32.71
1926;BME280;964;42.606;23.588;2022-12-18T03:47:59;95403.81;;;21.81;33.20
1926;BME280;964;42.606;23.588;2022-12-18T03:50:33;95408.78;;;22.24;32.36
1926;BME280;964;42.606;23.588;2022-12-18T03:53:08;95407.41;;;21.64;32.82
1926;BME280;964;42.606;23.588;2022-12-18T03:55:40;95412.66;;;22.23;32.63
1926;BME280;964;42.606;23.588;2022-12-18T03:58:11;95419.66;;;22.17;32.38
1926;BME280;964;42.606;23.588;2022-12-18T04:00:40;95415.16;;;22.74;31.91
1926;BME280;964;42.606;23.588;2022-12-18T04:03:08;95418.06;;;22.90;31.54
1926;BME280;964;42.606;23.588;2022-12-18T04:05:36;95432.41;;;21.72;32.85
1926;BME280;964;42.606;23.588;2022-12-18T04:08:04;95412.19;;;22.65;31.25
1926;BME280;964;42.606;23.588;2022-12-18T04:10:31;95424.03;;;21.59;33.07
1926;BME280;964;42.606;23.588;2022-12-18T04:12:58;95431.78;;;22.39;31.88
1926;BME280;964;42.606;23.588;2022-12-18T04:15:26;95424.47;;;22.36;31.69
1926;BME280;964;42.606;23.588;2022-12-18T04:17:53;95438.69;;;21.58;32.37
1926;BME280;964;42.606;23.588;2022-12-18T04:20:20;95443.19;;;22.16;32.26
1926;BME280;964;42.606;23.588;2022-12-18T04:22:47;95437.31;;;22.62;31.08
1926;BME280;964;42.606;23.588;2022-12-18T04:25:14;95451.53;;;21.91;32.16
1926;BME280;964;42.606;23.588;2022-12-18T04:27:40;95455.56;;;21.66;32.10
1926;BME280;964;42.606;23.588;2022-12-18T04:30:08;95461.25;;;21.78;32.26
1926;BME280;964;42.606;23.588;2022-12-18T04:32:36;95458.22;;;22.17;31.55
1926;BME280;964;42.606;23.588;2022-12-18T04:35:03;95459.06;;;22.11;31.74
1926;BME280;964;42.606;23.588;2022-12-18T04:37:32;95455.34;;;22.72;31.02
1926;BME280;964;42.606;23.588;2022-12-18T04:39:58;95461.06;;;22.44;31.28
1926;BME280;964;42.606;23.588;2022-12-18T04:42:25;95458.41;;;22.37;31.34
1926;BME280;964;42.606;23.588;2022-12-18T04:44:52;95461.91;;;22.34;31.38
1926;BME280;964;42.606;23.588;2022-12-18T04:47:18;95460.75;;;22.72;30.86
1926;BME280;964;42.606;23.588;2022-12-18T04:49:46;95483.06;;;22.02;31.92
1926;BME280;964;42.606;23.588;2022-12-18T04:52:13;95478.19;;;22.27;31.51
1926;BME280;964;42.606;23.588;2022-12-18T04:54:39;95482.06;;;22.26;30.94
1926;BME280;964;42.606;23.588;2022-12-18T04:57:06;95484.75;;;22.29;31.21
1926;BME280;964;42.606;23.588;2022-12-18T04:59:33;95488.16;;;21.92;31.75
1926;BME280;964;42.606;23.588;2022-12-18T05:02:00;95493.38;;;21.59;32.03
1926;BME280;964;42.606;23.588;2022-12-18T05:04:26;95498.88;;;22.44;31.00
1926;BME280;964;42.606;23.588;2022-12-18T05:06:54;95488.84;;;22.41;31.23
1926;BME280;964;42.606;23.588;2022-12-18T05:09:21;95489.22;;;22.43;30.86
1926;BME280;964;42.606;23.588;2022-12-18T05:11:48;95486.81;;;22.15;31.52
1926;BME280;964;42.606;23.588;2022-12-18T05:14:15;95505.91;;;21.83;31.44
1926;BME280;964;42.606;23.588;2022-12-18T05:16:41;95510.91;;;22.73;30.25
1926;BME280;964;42.606;23.588;2022-12-18T05:19:08;95514.28;;;23.15;30.18
1926;BME280;964;42.606;23.588;2022-12-18T05:21:35;95511.94;;;23.17;29.64
1926;BME280;964;42.606;23.588;2022-12-18T05:24:03;95522.66;;;23.24;29.68
1926;BME280;964;42.606;23.588;2022-12-18T05:26:30;95529.94;;;22.96;30.10
1926;BME280;964;42.606;23.588;2022-12-18T05:28:57;95534.22;;;22.57;30.40
1926;BME280;964;42.606;23.588;2022-12-18T05:31:24;95532.56;;;22.66;29.96
1926;BME280;964;42.606;23.588;2022-12-18T05:33:50;95534.63;;;22.92;30.13
1926;BME280;964;42.606;23.588;2022-12-18T05:36:17;95543.38;;;23.34;29.56
1926;BME280;964;42.606;23.588;2022-12-18T05:38:43;95537.34;;;23.23;29.69
1926;BME280;964;42.606;23.588;2022-12-18T05:41:11;95544.81;;;22.37;30.50
1926;BME280;964;42.606;23.588;2022-12-18T05:43:39;95552.72;;;21.59;31.38
1926;BME280;964;42.606;23.588;2022-12-18T05:46:08;95551.97;;;22.58;30.62
1926;BME280;964;42.606;23.588;2022-12-18T05:48:35;95553.69;;;21.93;31.04
1926;BME280;964;42.606;23.588;2022-12-18T05:51:06;95550.28;;;22.74;29.96
1926;BME280;964;42.606;23.588;2022-12-18T05:53:33;95565.25;;;22.38;30.61
1926;BME280;964;42.606;23.588;2022-12-18T05:56:02;95564.88;;;21.91;30.72
1926;BME280;964;42.606;23.588;2022-12-18T05:58:31;95564.25;;;22.66;29.82
1926;BME280;964;42.606;23.588;2022-12-18T06:01:06;95559.63;;;22.63;29.62
1926;BME280;964;42.606;23.588;2022-12-18T06:03:33;95575.03;;;22.25;30.35
1926;BME280;964;42.606;23.588;2022-12-18T06:06:00;95570.06;;;23.02;29.55
1926;BME280;964;42.606;23.588;2022-12-18T06:08:27;95578.97;;;22.99;29.46
1926;BME280;964;42.606;23.588;2022-12-18T06:10:54;95575.13;;;22.55;29.91
1926;BME280;964;42.606;23.588;2022-12-18T06:13:21;95582.66;;;22.33;30.20
1926;BME280;964;42.606;23.588;2022-12-18T06:15:49;95579.41;;;22.05;30.26
1926;BME280;964;42.606;23.588;2022-12-18T06:18:15;95593.19;;;22.21;30.22
1926;BME280;964;42.606;23.588;2022-12-18T06:20:42;95596.97;;;21.68;30.50
1926;BME280;964;42.606;23.588;2022-12-18T06:23:09;95601.22;;;21.69;30.30
1926;BME280;964;42.606;23.588;2022-12-18T06:25:38;95597.00;;;22.27;29.59
1926;BME280;964;42.606;23.588;2022-12-18T06:28:04;95598.03;;;21.85;29.75
1926;BME280;964;42.606;23.588;2022-12-18T06:30:31;95596.09;;;22.44;28.86
1926;BME280;964;42.606;23.588;2022-12-18T06:32:59;95597.91;;;22.10;29.88
1926;BME280;964;42.606;23.588;2022-12-18T06:35:26;95616.72;;;21.55;30.64
1926;BME280;964;42.606;23.588;2022-12-18T06:37:52;95608.38;;;22.00;29.55
1926;BME280;964;42.606;23.588;2022-12-18T06:40:19;95604.78;;;22.18;30.08
1926;BME280;964;42.606;23.588;2022-12-18T06:42:46;95608.22;;;22.22;29.55
1926;BME280;964;42.606;23.588;2022-12-18T06:45:16;95609.22;;;22.42;29.64
1926;BME280;964;42.606;23.588;2022-12-18T06:47:42;95617.38;;;21.76;30.34
1926;BME280;964;42.606;23.588;2022-12-18T06:50:11;95628.88;;;21.84;30.00
1926;BME280;964;42.606;23.588;2022-12-18T06:52:38;95630.28;;;22.10;29.39
1926;BME280;964;42.606;23.588;2022-12-18T06:55:06;95634.78;;;22.27;29.67
1926;BME280;964;42.606;23.588;2022-12-18T06:57:33;95649.75;;;21.76;30.06
1926;BME280;964;42.606;23.588;2022-12-18T07:00:00;95639.28;;;21.92;29.92
1926;BME280;964;42.606;23.588;2022-12-18T07:02:29;95637.97;;;22.15;29.65
1926;BME280;964;42.606;23.588;2022-12-18T07:04:56;95647.88;;;21.66;29.40
1926;BME280;964;42.606;23.588;2022-12-18T07:07:24;95647.78;;;21.80;29.37
1926;BME280;964;42.606;23.588;2022-12-18T07:09:50;95659.22;;;21.15;30.50
1926;BME280;964;42.606;23.588;2022-12-18T07:12:17;95645.38;;;22.04;28.98
1926;BME280;964;42.606;23.588;2022-12-18T07:14:44;95647.00;;;21.83;29.38
1926;BME280;964;42.606;23.588;2022-12-18T07:17:11;95659.09;;;21.54;29.69
1926;BME280;964;42.606;23.588;2022-12-18T07:19:38;95662.94;;;21.60;29.82
1926;BME280;964;42.606;23.588;2022-12-18T07:22:04;95651.75;;;22.27;29.32
1926;BME280;964;42.606;23.588;2022-12-18T07:24:33;95654.25;;;22.00;28.98
1926;BME280;964;42.606;23.588;2022-12-18T07:27:00;95654.81;;;22.33;29.29
1926;BME280;964;42.606;23.588;2022-12-18T07:29:26;95648.16;;;22.92;28.91
1926;BME280;964;42.606;23.588;2022-12-18T07:31:53;95664.81;;;21.70;29.74
1926;BME280;964;42.606;23.588;2022-12-18T07:34:20;95660.50;;;22.45;29.15
1926;BME280;964;42.606;23.588;2022-12-18T07:36:47;95662.94;;;21.60;30.06
1926;BME280;964;42.606;23.588;2022-12-18T07:39:13;95663.25;;;21.73;29.82
1926;BME280;964;42.606;23.588;2022-12-18T07:41:41;95660.69;;;22.21;29.18
1926;BME280;964;42.606;23.588;2022-12-18T07:44:11;95663.75;;;22.74;28.62
1926;BME280;964;42.606;23.588;2022-12-18T07:46:38;95668.53;;;21.97;29.72
1926;BME280;964;42.606;23.588;2022-12-18T07:49:05;95679.84;;;21.64;29.54
1926;BME280;964;42.606;23.588;2022-12-18T07:51:32;95680.66;;;21.54;29.59
1926;BME280;964;42.606;23.588;2022-12-18T07:53:59;95689.19;;;21.49;29.99
1926;BME280;964;42.606;23.588;2022-12-18T07:56:25;95680.50;;;21.96;28.75
1926;BME280;964;42.606;23.588;2022-12-18T07:58:54;95691.31;;;21.82;29.47
1926;BME280;964;42.606;23.588;2022-12-18T08:01:20;95696.66;;;22.04;28.57
1926;BME280;964;42.606;23.588;2022-12-18T08:03:47;95693.06;;;22.79;28.40
1926;BME280;964;42.606;23.588;2022-12-18T08:06:14;95701.34;;;21.92;28.77
1926;BME280;964;42.606;23.588;2022-12-18T08:08:40;95711.50;;;21.57;29.59
1926;BME280;964;42.606;23.588;2022-12-18T08:11:07;95710.41;;;21.33;29.38
1926;BME280;964;42.606;23.588;2022-12-18T08:13:34;95709.13;;;21.69;29.12
1926;BME280;964;42.606;23.588;2022-12-18T08:16:05;95705.84;;;22.13;28.52
1926;BME280;964;42.606;23.588;2022-12-18T08:18:32;95716.88;;;21.60;29.25
1926;BME280;964;42.606;23.588;2022-12-18T08:21:07;95715.28;;;21.73;29.37
1926;BME280;964;42.606;23.588;2022-12-18T08:23:34;95718.72;;;21.77;29.34
1926;BME280;964;42.606;23.588;2022-12-18T08:26:01;95726.59;;;21.19;29.94
1926;BME280;964;42.606;23.588;2022-12-18T08:28:28;95725.09;;;22.19;29.30
1926;BME280;964;42.606;23.588;2022-12-18T08:30:54;95728.38;;;21.78;30.27
1926;BME280;964;42.606;23.588;2022-12-18T08:33:22;95731.78;;;21.96;29.78
1926;BME280;964;42.606;23.588;2022-12-18T08:35:49;95735.63;;;22.03;29.01
1926;BME280;964;42.606;23.588;2022-12-18T08:38:16;95738.41;;;21.74;29.14
1926;BME280;964;42.606;23.588;2022-12-18T08:40:42;95736.50;;;21.61;30.22
1926;BME280;964;42.606;23.588;2022-12-18T08:43:09;95726.63;;;22.23;29.43
1926;BME280;964;42.606;23.588;2022-12-18T08:46:09;95741.44;;;21.94;29.46
1926;BME280;964;42.606;23.588;2022-12-18T08:48:36;95743.16;;;21.07;30.13
1926;BME280;964;42.606;23.588;2022-12-18T08:51:03;95744.69;;;21.00;30.21
1926;BME280;964;42.606;23.588;2022-12-18T08:53:30;95744.56;;;21.75;29.76
1926;BME280;964;42.606;23.588;2022-12-18T08:55:57;95731.44;;;21.80;29.71
1926;BME280;964;42.606;23.588;2022-12-18T08:58:24;95739.31;;;20.90;30.40
1926;BME280;964;42.606;23.588;2022-12-18T09:00:50;95743.50;;;21.44;29.51
1926;BME280;964;42.606;23.588;2022-12-18T09:03:18;95747.75;;;21.48;29.82
1926;BME280;964;42.606;23.588;2022-12-18T09:05:48;95745.44;;;21.36;29.54
1926;BME280;964;42.606;23.588;2022-12-18T09:08:15;95750.47;;;20.53;30.87
1926;BME280;964;42.606;23.588;2022-12-18T09:10:43;95747.75;;;21.38;30.04
1926;BME280;964;42.606;23.588;2022-12-18T09:13:10;95746.97;;;21.41;30.09
1926;BME280;964;42.606;23.588;2022-12-18T09:15:40;95748.16;;;20.97;30.47
1926;BME280;964;42.606;23.588;2022-12-18T09:18:07;95741.50;;;21.69;29.62
1926;BME280;964;42.606;23.588;2022-12-18T09:20:34;95750.44;;;21.48;30.21
1926;BME280;964;42.606;23.588;2022-12-18T09:23:02;95746.09;;;21.76;29.48
1926;BME280;964;42.606;23.588;2022-12-18T09:25:29;95746.84;;;21.83;29.07
1926;BME280;964;42.606;23.588;2022-12-18T09:27:58;95747.75;;;21.45;30.02
1926;BME280;964;42.606;23.588;2022-12-18T09:30:25;95752.28;;;21.69;28.99
1926;BME280;964;42.606;23.588;2022-12-18T09:32:52;95749.19;;;21.81;28.91
1926;BME280;964;42.606;23.588;2022-12-18T09:35:20;95752.16;;;22.05;28.64
1926;BME280;964;42.606;23.588;2022-12-18T09:37:46;95744.25;;;22.42;28.54
1926;BME280;964;42.606;23.588;2022-12-18T09:40:16;95745.06;;;22.39;28.81
1926;BME280;964;42.606;23.588;2022-12-18T09:42:48;95743.72;;;22.68;28.46
1926;BME280;964;42.606;23.588;2022-12-18T09:45:18;95751.34;;;22.22;28.74
1926;BME280;964;42.606;23.588;2022-12-18T09:47:46;95746.91;;;21.62;29.29
1926;BME280;964;42.606;23.588;2022-12-18T09:50:23;95750.66;;;22.00;28.93
1926;BME280;964;42.606;23.588;2022-12-18T09:52:54;95757.41;;;20.96;29.74
1926;BME280;964;42.606;23.588;2022-12-18T09:55:29;95749.22;;;21.71;28.77
1926;BME280;964;42.606;23.588;2022-12-18T09:58:00;95738.31;;;22.03;28.45
1926;BME280;964;42.606;23.588;2022-12-18T10:00:29;95749.72;;;21.09;29.47
1926;BME280;964;42.606;23.588;2022-12-18T10:02:59;95747.03;;;21.06;29.18
1926;BME280;964;42.606;23.588;2022-12-18T10:05:33;95743.16;;;21.38;28.92
1926;BME280;964;42.606;23.588;2022-12-18T10:08:06;95740.84;;;21.33;28.39
1926;BME280;964;42.606;23.588;2022-12-18T10:10:43;95733.59;;;22.21;27.63
1926;BME280;964;42.606;23.588;2022-12-18T10:13:19;95741.13;;;21.67;28.54
1926;BME280;964;42.606;23.588;2022-12-18T10:15:57;95730.19;;;22.72;27.64
1926;BME280;964;42.606;23.588;2022-12-18T10:18:39;95740.56;;;22.15;27.85
1926;BME280;964;42.606;23.588;2022-12-18T10:21:15;95736.41;;;21.99;27.91
1926;BME280;964;42.606;23.588;2022-12-18T10:23:50;95738.34;;;21.95;28.44
1926;BME280;964;42.606;23.588;2022-12-18T10:26:24;95735.94;;;22.12;28.16
1926;BME280;964;42.606;23.588;2022-12-18T10:28:51;95741.50;;;21.69;27.88
1926;BME280;964;42.606;23.588;2022-12-18T10:31:20;95739.31;;;22.30;27.58
1926;BME280;964;42.606;23.588;2022-12-18T10:33:47;95739.13;;;21.85;28.47
1926;BME280;964;42.606;23.588;2022-12-18T10:36:14;95735.88;;;22.26;28.04
1926;BME280;964;42.606;23.588;2022-12-18T10:38:41;95734.47;;;22.00;28.21
1926;BME280;964;42.606;23.588;2022-12-18T10:41:25;95739.31;;;20.93;29.57
1926;BME280;964;42.606;23.588;2022-12-18T10:44:11;95722.59;;;22.49;27.95
1926;BME280;964;42.606;23.588;2022-12-18T10:46:38;95727.41;;;22.20;27.90
1926;BME280;964;42.606;23.588;2022-12-18T10:49:05;95730.53;;;22.12;28.34
1926;BME280;964;42.606;23.588;2022-12-18T10:51:44;95726.81;;;21.81;28.57
1926;BME280;964;42.606;23.588;2022-12-18T10:54:14;95715.09;;;22.16;28.19
1926;BME280;964;42.606;23.588;2022-12-18T10:56:44;95735.78;;;21.49;28.68
1926;BME280;964;42.606;23.588;2022-12-18T10:59:15;95726.97;;;21.21;28.63
1926;BME280;964;42.606;23.588;2022-12-18T11:01:47;95724.97;;;21.60;28.51
1926;BME280;964;42.606;23.588;2022-12-18T11:04:18;95717.69;;;22.30;27.65
1926;BME280;964;42.606;23.588;2022-12-18T11:06:57;95712.69;;;22.32;27.76
1926;BME280;964;42.606;23.588;2022-12-18T11:09:26;95714.97;;;22.37;27.64
1926;BME280;964;42.606;23.588;2022-12-18T11:11:55;95728.44;;;21.57;28.01
1926;BME280;964;42.606;23.588;2022-12-18T11:14:26;95724.63;;;21.44;28.34
1926;BME280;964;42.606;23.588;2022-12-18T11:16:54;95726.78;;;21.88;28.00
1926;BME280;964;42.606;23.588;2022-12-18T11:19:28;95735.84;;;21.07;28.67
1926;BME280;964;42.606;23.588;2022-12-18T11:21:58;95728.94;;;21.24;28.85
1926;BME280;964;42.606;23.588;2022-12-18T11:24:29;95731.22;;;22.30;27.53
1926;BME280;964;42.606;23.588;2022-12-18T11:27:00;95735.06;;;21.28;28.71
1926;BME280;964;42.606;23.588;2022-12-18T11:29:33;95735.44;;;21.30;28.06
1926;BME280;964;42.606;23.588;2022-12-18T11:32:24;95730.63;;;21.97;27.75
1926;BME280;964;42.606;23.588;2022-12-18T11:34:59;95731.50;;;21.66;28.09
1926;BME280;964;42.606;23.588;2022-12-18T11:37:28;95732.59;;;21.76;27.78
1926;BME280;964;42.606;23.588;2022-12-18T11:39:59;95743.13;;;21.28;28.63
1926;BME280;964;42.606;23.588;2022-12-18T11:42:35;95733.06;;;21.64;28.48
1926;BME280;964;42.606;23.588;2022-12-18T11:45:21;95743.75;;;21.92;28.43
1926;BME280;964;42.606;23.588;2022-12-18T11:47:59;95734.41;;;22.11;27.92
1926;BME280;964;42.606;23.588;2022-12-18T11:50:33;95730.34;;;22.47;27.46
1926;BME280;964;42.606;23.588;2022-12-18T11:53:04;95728.06;;;22.42;27.11
1926;BME280;964;42.606;23.588;2022-12-18T11:55:41;95738.66;;;22.08;27.56
1926;BME280;964;42.606;23.588;2022-12-18T11:58:17;95738.41;;;21.74;28.09
1926;BME280;964;42.606;23.588;2022-12-18T12:00:52;95741.59;;;21.41;28.09
1926;BME280;964;42.606;23.588;2022-12-18T12:03:36;95735.19;;;22.04;27.58
1926;BME280;964;42.606;23.588;2022-12-18T12:06:12;95733.03;;;21.67;27.53
1926;BME280;964;42.606;23.588;2022-12-18T12:08:55;95738.16;;;20.94;28.21
1926;BME280;964;42.606;23.588;2022-12-18T12:11:34;95737.75;;;21.42;27.54
1926;BME280;964;42.606;23.588;2022-12-18T12:14:23;95739.31;;;21.22;27.89
1926;BME280;964;42.606;23.588;2022-12-18T12:16:57;95734.50;;;21.96;27.87
1926;BME280;964;42.606;23.588;2022-12-18T12:19:38;95728.38;;;21.71;27.73
1926;BME280;964;42.606;23.588;2022-12-18T12:22:15;95733.72;;;21.99;27.22
1926;BME280;964;42.606;23.588;2022-12-18T12:24:53;95736.72;;;22.09;27.19
1926;BME280;964;42.606;23.588;2022-12-18T12:27:30;95739.94;;;21.75;27.86
1926;BME280;964;42.606;23.588;2022-12-18T12:30:16;95735.22;;;22.08;27.24
1926;BME280;964;42.606;23.588;2022-12-18T12:32:54;95731.56;;;21.45;27.32
1926;BME280;964;42.606;23.588;2022-12-18T12:35:34;95742.19;;;21.87;27.22
1926;BME280;964;42.606;23.588;2022-12-18T12:38:09;95733.53;;;21.20;27.69
1926;BME280;964;42.606;23.588;2022-12-18T12:40:41;95736.84;;;21.80;27.00
1926;BME280;964;42.606;23.588;2022-12-18T12:43:20;95740.09;;;20.76;28.68
1926;BME280;964;42.606;23.588;2022-12-18T12:45:53;95742.19;;;21.98;26.98
1926;BME280;964;42.606;23.588;2022-12-18T12:48:31;95746.09;;;21.76;27.49
1926;BME280;964;42.606;23.588;2022-12-18T12:51:00;95741.50;;;21.69;27.20
1926;BME280;964;42.606;23.588;2022-12-18T12:53:31;95746.91;;;21.62;27.31
1926;BME280;964;42.606;23.588;2022-12-18T12:56:01;95743.09;;;22.43;26.33
1926;BME280;964;42.606;23.588;2022-12-18T12:58:33;95760.72;;;21.85;27.14
1926;BME280;964;42.606;23.588;2022-12-18T13:01:09;95753.41;;;22.59;26.85
1926;BME280;964;42.606;23.588;2022-12-18T13:03:48;95754.88;;;22.67;26.37
1926;BME280;964;42.606;23.588;2022-12-18T13:06:25;95767.38;;;22.50;26.27
1926;BME280;964;42.606;23.588;2022-12-18T13:08:57;95764.66;;;22.50;26.22
1926;BME280;964;42.606;23.588;2022-12-18T13:11:34;95774.84;;;22.25;26.39
1926;BME280;964;42.606;23.588;2022-12-18T13:14:37;95765.22;;;22.20;27.02
1926;BME280;964;42.606;23.588;2022-12-18T13:17:28;95768.56;;;21.06;28.40
1926;BME280;964;42.606;23.588;2022-12-18T13:20:17;95758.88;;;22.48;26.16
1926;BME280;964;42.606;23.588;2022-12-18T13:22:45;95772.66;;;21.84;27.38
1926;BME280;964;42.606;23.588;2022-12-18T13:25:29;95766.75;;;22.25;27.03
1926;BME280;964;42.606;23.588;2022-12-18T13:28:05;95774.72;;;21.17;28.22
1926;BME280;964;42.606;23.588;2022-12-18T13:30:53;95775.34;;;22.71;26.51
1926;BME280;964;42.606;23.588;2022-12-18T13:33:37;95783.25;;;22.34;26.79
1926;BME280;964;42.606;23.588;2022-12-18T13:36:13;95784.50;;;22.15;27.09
1926;BME280;964;42.606;23.588;2022-12-18T13:38:40;95786.53;;;22.73;26.41
1926;BME280;964;42.606;23.588;2022-12-18T13:41:22;95794.63;;;21.86;27.10